createdAt,value
2017-08-12T00:00:18.689Z,99187.00
2017-08-12T00:02:46.210Z,99193.63
2017-08-12T00:05:13.765Z,99199.45
2017-08-12T00:07:41.281Z,99205.54
2017-08-12T00:10:08.914Z,99202.83
2017-08-12T00:12:36.466Z,99204.76
2017-08-12T00:15:03.988Z,99205.30
2017-08-12T00:17:31.538Z,99200.59
2017-08-12T00:19:59.059Z,99206.79
2017-08-12T00:22:26.604Z,99203.13
2017-08-12T00:24:54.126Z,99200.59
2017-08-12T00:27:21.692Z,99204.08
2017-08-12T00:29:49.241Z,99194.88
2017-08-12T00:32:16.810Z,99196.77
2017-08-12T00:34:44.349Z,99202.42
2017-08-12T00:37:11.901Z,99195.19
2017-08-12T00:39:39.471Z,99205.44
2017-08-12T00:42:06.997Z,99209.09
2017-08-12T00:44:34.553Z,99204.62
2017-08-12T00:47:02.081Z,99209.36
2017-08-12T00:49:29.648Z,99208.95
2017-08-12T00:51:57.169Z,99211.39
2017-08-12T00:54:24.690Z,99210.98
2017-08-12T00:56:52.264Z,99208.45
2017-08-12T00:59:19.825Z,99217.20
2017-08-12T01:01:47.395Z,99215.99
2017-08-12T01:04:14.943Z,99219.27
2017-08-12T01:06:42.505Z,99226.17
2017-08-12T01:09:10.027Z,99226.58
2017-08-12T01:11:37.559Z,99223.33
2017-08-12T01:14:05.117Z,99220.36
2017-08-12T01:16:32.636Z,99216.70
2017-08-12T01:19:00.191Z,99225.23
2017-08-12T01:21:27.714Z,99218.46
2017-08-12T01:23:55.237Z,99221.16
2017-08-12T01:26:22.806Z,99225.36
2017-08-12T01:28:50.331Z,99222.25
2017-08-12T01:31:17.916Z,99222.25
2017-08-12T01:33:45.435Z,99218.77
2017-08-12T01:36:12.971Z,99224.14
2017-08-12T01:38:40.573Z,99224.04
2017-08-12T01:41:08.103Z,99219.84
2017-08-12T01:43:35.664Z,99221.73
2017-08-12T01:46:03.227Z,99227.16
2017-08-12T01:48:30.780Z,99220.69
2017-08-12T01:50:58.306Z,99227.29
2017-08-12T01:53:25.831Z,99223.27
2017-08-12T01:55:53.388Z,99225.45
2017-08-12T01:58:20.915Z,99226.81
2017-08-12T02:00:48.472Z,99228.67
2017-08-12T02:03:15.992Z,99231.41
2017-08-12T02:05:43.571Z,99228.81
2017-08-12T02:08:11.124Z,99235.88
2017-08-12T02:10:38.638Z,99235.17
2017-08-12T02:13:06.187Z,99235.70
2017-08-12T02:15:33.702Z,99233.98
2017-08-12T02:18:01.269Z,99228.33
2017-08-12T02:20:28.800Z,99223.46
2017-08-12T02:22:56.324Z,99222.75
2017-08-12T02:25:23.950Z,99225.56
2017-08-12T02:27:51.493Z,99216.09
2017-08-12T02:30:19.079Z,99213.42
2017-08-12T02:32:46.598Z,99210.98
2017-08-12T02:35:14.113Z,99215.28
2017-08-12T02:37:41.664Z,99207.02
2017-08-12T02:40:09.188Z,99207.56
2017-08-12T02:42:36.749Z,99209.45
2017-08-12T02:45:04.315Z,99207.59
2017-08-12T02:47:31.892Z,99205.44
2017-08-12T02:49:59.464Z,99210.20
2017-08-12T02:52:26.994Z,99208.14
2017-08-12T02:54:54.548Z,99214.66
2017-08-12T02:57:22.084Z,99210.03
2017-08-12T02:59:49.635Z,99214.23
2017-08-12T03:02:17.148Z,99219.09
2017-08-12T03:04:44.692Z,99212.47
2017-08-12T03:07:12.247Z,99216.39
2017-08-12T03:09:39.806Z,99210.98
2017-08-12T03:12:07.365Z,99209.36
2017-08-12T03:14:34.882Z,99208.95
2017-08-12T03:17:02.429Z,99207.19
2017-08-12T03:19:29.941Z,99204.34
2017-08-12T03:21:57.530Z,99205.30
2017-08-12T03:24:25.061Z,99207.46
2017-08-12T03:26:52.568Z,99201.67
2017-08-12T03:29:20.123Z,99203.67
2017-08-12T03:31:47.641Z,99203.84
2017-08-12T03:34:15.197Z,99196.09
2017-08-12T03:36:42.705Z,99197.08
2017-08-12T03:39:10.263Z,99193.70
2017-08-12T03:41:37.782Z,99203.06
2017-08-12T03:44:05.370Z,99193.19
2017-08-12T03:46:32.928Z,99194.78
2017-08-12T03:49:00.445Z,99199.11
2017-08-12T03:51:28.082Z,99197.86
2017-08-12T03:53:55.604Z,99199.62
2017-08-12T03:56:23.162Z,99201.52
2017-08-12T03:58:50.677Z,99192.61
2017-08-12T04:01:18.189Z,99198.16
2017-08-12T04:03:45.770Z,99196.40
2017-08-12T04:06:13.289Z,99204.14
2017-08-12T04:08:40.802Z,99201.98
2017-08-12T04:11:08.353Z,99197.41
2017-08-12T04:13:35.875Z,99196.50
2017-08-12T04:16:03.388Z,99193.25
2017-08-12T04:18:30.946Z,99190.38
2017-08-12T04:20:58.496Z,99181.82
2017-08-12T04:23:26.058Z,99185.34
2017-08-12T04:25:53.567Z,99179.93
2017-08-12T04:28:21.079Z,99184.26
2017-08-12T04:30:48.629Z,99183.75
2017-08-12T04:33:16.137Z,99187.00
2017-08-12T04:35:43.718Z,99190.34
2017-08-12T04:38:11.259Z,99194.81
2017-08-12T04:40:38.829Z,99195.11
2017-08-12T04:43:06.345Z,99197.14
2017-08-12T04:45:33.984Z,99192.14
2017-08-12T04:48:01.496Z,99186.32
2017-08-12T04:50:29.015Z,99175.80
2017-08-12T04:52:56.586Z,99176.38
2017-08-12T04:55:24.118Z,99188.52
2017-08-12T04:57:51.674Z,99186.63
2017-08-12T05:00:19.192Z,99189.30
2017-08-12T05:02:46.744Z,99191.05
2017-08-12T17:52:55.334Z,99408.55
2017-08-12T17:55:22.865Z,99411.48
2017-08-12T17:57:50.429Z,99413.48
2017-08-12T18:00:20.318Z,99418.55
2017-08-12T18:02:48.363Z,99418.64
2017-08-12T18:05:16.853Z,99420.38
2017-08-12T18:07:44.706Z,99428.20
2017-08-12T18:10:13.233Z,99425.57
2017-08-12T18:12:42.233Z,99427.71
2017-08-12T18:15:11.490Z,99430.83
2017-08-12T18:17:39.856Z,99432.86
2017-08-12T18:20:08.181Z,99419.53
2017-08-12T18:22:35.831Z,99420.05
2017-08-12T18:25:03.774Z,99421.52
2017-08-12T18:27:31.870Z,99424.33
2017-08-12T18:30:00.015Z,99427.58
2017-08-12T18:32:27.647Z,99426.36
2017-08-12T18:34:55.368Z,99428.55
2017-08-12T18:37:23.777Z,99438.84
2017-08-12T18:39:51.586Z,99426.28
2017-08-12T18:42:19.443Z,99437.19
2017-08-12T18:44:47.493Z,99444.64
2017-08-12T18:47:15.322Z,99444.75
2017-08-12T18:49:42.849Z,99450.27
2017-08-12T18:52:10.402Z,99451.22
2017-08-12T18:54:37.929Z,99446.20
2017-08-12T18:57:05.497Z,99439.61
2017-08-12T18:59:33.431Z,99448.75
2017-08-12T19:02:01.362Z,99442.93
2017-08-12T19:04:29.452Z,99445.80
2017-08-12T19:06:57.300Z,99447.56
2017-08-12T19:09:25.674Z,99450.28
2017-08-12T19:11:53.857Z,99458.40
2017-08-12T19:14:21.702Z,99461.89
2017-08-12T19:16:49.483Z,99463.66
2017-08-12T19:19:20.426Z,99462.84
2017-08-12T19:21:48.494Z,99459.42
2017-08-12T19:24:16.876Z,99457.09
2017-08-12T19:26:44.771Z,99460.59
2017-08-12T19:29:12.608Z,99465.57
2017-08-12T19:31:40.669Z,99463.41
2017-08-12T19:34:08.330Z,99465.55
2017-08-12T19:36:36.197Z,99465.95
2017-08-12T19:39:04.054Z,99465.81
2017-08-12T19:41:31.725Z,99464.16
2017-08-12T19:43:59.795Z,99459.96
2017-08-12T19:46:27.714Z,99466.46
2017-08-12T19:48:55.360Z,99461.99
2017-08-12T19:51:23.295Z,99463.48
2017-08-12T19:53:51.369Z,99473.27
